createdAt,value
2023-01-30T00:01:56.387Z,15.40
2023-01-30T00:04:24.420Z,15.67
2023-01-30T00:06:52.070Z,16.33
2023-01-30T00:09:21.254Z,15.53
2023-01-30T00:11:48.996Z,16.73
2023-01-30T00:14:16.816Z,17.67
2023-01-30T00:16:45.072Z,16.10
2023-01-30T00:19:12.854Z,16.10
2023-01-30T00:21:41.939Z,16.73
2023-01-30T00:24:10.239Z,16.20
2023-01-30T00:26:43.093Z,15.67
2023-01-30T00:29:14.063Z,16.83
2023-01-30T00:31:48.001Z,16.60
2023-01-30T00:34:21.019Z,15.53
2023-01-30T00:37:07.152Z,17.07
2023-01-30T00:39:41.943Z,14.50
2023-01-30T00:42:30.965Z,15.90
2023-01-30T00:45:19.634Z,15.90
2023-01-30T00:47:53.215Z,15.53
2023-01-30T00:50:21.408Z,15.03
2023-01-30T00:52:49.121Z,15.83
2023-01-30T00:55:18.858Z,17.23
2023-01-30T00:57:48.332Z,14.67
2023-01-30T01:00:17.929Z,15.93
2023-01-30T01:02:45.663Z,16.20
2023-01-30T01:05:13.557Z,15.77
2023-01-30T01:07:41.300Z,16.17
2023-01-30T01:10:16.257Z,15.83
2023-01-30T01:12:44.654Z,16.63
2023-01-30T01:15:15.234Z,16.23
2023-01-30T01:17:43.607Z,16.27
2023-01-30T01:20:12.034Z,16.10
2023-01-30T01:22:39.747Z,15.23
2023-01-30T01:25:09.383Z,14.70
2023-01-30T01:27:37.421Z,14.67
2023-01-30T01:30:09.015Z,13.67
2023-01-30T01:32:39.103Z,14.97
2023-01-30T01:35:07.689Z,13.87
2023-01-30T01:37:35.932Z,14.97
2023-01-30T01:40:21.759Z,14.43
2023-01-30T01:42:50.994Z,13.03
2023-01-30T01:45:21.984Z,13.70
2023-01-30T01:48:01.425Z,13.47
2023-01-30T01:50:39.937Z,13.43
2023-01-30T01:53:08.972Z,13.53
2023-01-30T01:55:38.790Z,14.73
2023-01-30T01:58:12.176Z,14.27
2023-01-30T02:00:40.397Z,15.63
2023-01-30T02:03:15.343Z,15.60
2023-01-30T02:05:51.764Z,14.37
2023-01-30T02:08:23.814Z,13.53
2023-01-30T02:10:58.222Z,14.63
2023-01-30T02:13:28.201Z,14.17
2023-01-30T02:15:59.236Z,14.03
2023-01-30T02:18:29.355Z,13.00
2023-01-30T02:21:38.539Z,13.60
2023-01-30T02:24:36.715Z,13.07
2023-01-30T02:27:24.892Z,12.43
2023-01-30T02:30:38.434Z,13.27
2023-01-30T02:33:17.212Z,13.80
2023-01-30T02:35:54.457Z,12.63
2023-01-30T02:38:35.950Z,13.13
2023-01-30T02:41:14.246Z,12.97
2023-01-30T02:43:50.626Z,13.67
2023-01-30T02:46:24.087Z,14.03
2023-01-30T02:48:58.398Z,14.20
2023-01-30T02:51:31.679Z,12.37
2023-01-30T02:54:01.040Z,13.77
2023-01-30T02:56:29.370Z,12.73
2023-01-30T02:59:03.271Z,13.73
2023-01-30T03:01:50.644Z,13.17
2023-01-30T03:04:33.953Z,12.33
2023-01-30T03:07:15.231Z,12.67
2023-01-30T03:09:52.386Z,13.77
2023-01-30T03:12:32.118Z,15.00
2023-01-30T03:15:04.284Z,13.70
2023-01-30T03:17:33.940Z,14.00
2023-01-30T03:20:06.284Z,14.70
2023-01-30T03:22:33.930Z,14.23
2023-01-30T03:25:02.976Z,16.13
2023-01-30T03:27:31.628Z,15.07
2023-01-30T03:29:59.387Z,15.67
2023-01-30T03:32:27.201Z,16.17
2023-01-30T03:34:57.218Z,16.00
2023-01-30T03:37:26.833Z,15.47
2023-01-30T03:39:56.006Z,16.30
2023-01-30T03:42:23.946Z,16.03
2023-01-30T03:44:52.651Z,16.87
2023-01-30T03:47:20.377Z,15.77
2023-01-30T03:49:50.461Z,16.60
2023-01-30T03:52:18.180Z,16.27
2023-01-30T03:54:47.519Z,16.30
2023-01-30T03:57:16.335Z,17.00
2023-01-30T03:59:44.664Z,17.80
2023-01-30T04:02:15.423Z,18.77
2023-01-30T04:04:45.769Z,17.33
2023-01-30T04:07:14.270Z,18.57
2023-01-30T04:09:43.059Z,17.23
2023-01-30T04:12:13.872Z,18.97
2023-01-30T04:14:51.073Z,19.00
2023-01-30T04:17:29.567Z,19.90
2023-01-30T04:20:16.150Z,19.30
2023-01-30T04:22:50.221Z,19.00
2023-01-30T04:25:18.667Z,18.53
2023-01-30T04:27:49.316Z,17.87
2023-01-30T04:30:21.705Z,20.97
2023-01-30T04:32:55.829Z,19.20
2023-01-30T04:35:23.979Z,18.20
2023-01-30T04:37:52.370Z,17.97
2023-01-30T04:40:21.544Z,17.70
2023-01-30T04:42:50.705Z,18.90
2023-01-30T04:45:48.017Z,18.37
2023-01-30T04:48:16.748Z,17.97
2023-01-30T04:50:48.507Z,17.73
2023-01-30T04:53:16.737Z,18.87
2023-01-30T04:55:44.964Z,17.37
2023-01-30T04:58:14.198Z,17.20
2023-01-30T05:00:41.987Z,18.20
2023-01-30T05:03:09.766Z,17.57
2023-01-30T05:05:37.684Z,18.33
2023-01-30T05:08:09.966Z,18.70
2023-01-30T05:10:37.684Z,18.27
2023-01-30T05:13:06.454Z,17.37
2023-01-30T05:15:35.753Z,16.33
2023-01-30T05:18:03.356Z,16.70
2023-01-30T05:20:31.096Z,17.17
2023-01-30T05:22:58.834Z,23.03
2023-01-30T05:25:26.557Z,15.00
2023-01-30T05:27:54.229Z,16.10
2023-01-30T05:30:22.209Z,14.47
2023-01-30T05:32:51.384Z,13.57
2023-01-30T05:35:19.451Z,13.77
2023-01-30T05:37:51.447Z,14.23
2023-01-30T05:40:19.536Z,14.20
2023-01-30T05:42:48.584Z,14.63
2023-01-30T05:45:17.001Z,14.30
2023-01-30T05:47:45.055Z,12.70
2023-01-30T05:50:15.457Z,13.87
2023-01-30T05:52:43.191Z,12.97
2023-01-30T05:55:11.223Z,13.33
2023-01-30T05:57:39.382Z,14.27
2023-01-30T06:00:10.307Z,12.87
2023-01-30T06:02:40.872Z,12.33
2023-01-30T06:05:09.670Z,12.40
2023-01-30T06:07:38.647Z,12.20
2023-01-30T06:10:07.340Z,13.23
2023-01-30T06:12:35.118Z,12.67
2023-01-30T06:15:03.319Z,12.00
2023-01-30T06:17:31.462Z,12.60
2023-01-30T06:19:59.632Z,12.33
2023-01-30T06:22:27.311Z,12.27
2023-01-30T06:24:56.352Z,13.90
2023-01-30T06:27:24.411Z,11.77
2023-01-30T06:29:52.243Z,12.37
2023-01-30T06:32:20.153Z,11.63
2023-01-30T06:34:48.216Z,12.73
2023-01-30T06:37:15.879Z,13.27
2023-01-30T06:39:43.634Z,13.27
2023-01-30T06:42:14.384Z,12.33
2023-01-30T06:44:42.574Z,13.13
2023-01-30T06:47:11.136Z,12.60
2023-01-30T06:49:38.916Z,12.47
2023-01-30T06:52:06.879Z,13.07
2023-01-30T06:54:35.231Z,12.67
2023-01-30T06:57:02.870Z,12.43
2023-01-30T06:59:31.883Z,12.67
2023-01-30T07:02:00.035Z,12.17
2023-01-30T07:04:27.829Z,11.57
2023-01-30T07:06:55.768Z,11.63
2023-01-30T07:09:23.465Z,11.60
2023-01-30T07:11:51.319Z,12.57
2023-01-30T07:14:18.944Z,11.70
2023-01-30T07:16:48.208Z,11.20
2023-01-30T07:19:15.981Z,11.83
2023-01-30T07:21:43.729Z,11.23
2023-01-30T07:24:11.888Z,11.57
2023-01-30T07:26:39.586Z,11.60
2023-01-30T07:29:07.347Z,11.87
2023-01-30T07:31:35.622Z,11.47
2023-01-30T07:34:05.427Z,12.93
2023-01-30T07:36:34.703Z,12.27
2023-01-30T07:39:03.245Z,11.33
2023-01-30T07:41:31.118Z,11.80
2023-01-30T07:43:59.034Z,11.40
2023-01-30T07:46:27.058Z,10.90
2023-01-30T07:48:54.756Z,12.20
2023-01-30T07:51:23.996Z,11.67
2023-01-30T07:53:58.192Z,12.43
2023-01-30T07:56:30.637Z,12.57
2023-01-30T07:58:58.377Z,12.60
2023-01-30T08:01:26.343Z,12.20
2023-01-30T08:03:54.057Z,11.40
2023-01-30T08:06:37.424Z,12.47
2023-01-30T08:09:05.090Z,11.37
2023-01-30T08:11:33.129Z,11.57
2023-01-30T08:14:01.134Z,10.60
2023-01-30T08:16:32.230Z,11.53
2023-01-30T08:19:00.121Z,11.23
2023-01-30T08:21:28.339Z,10.70
2023-01-30T08:24:00.110Z,10.83
2023-01-30T08:26:28.677Z,10.40
2023-01-30T08:28:56.925Z,9.50
2023-01-30T08:31:24.715Z,9.30
2023-01-30T08:33:52.583Z,9.17
2023-01-30T08:36:20.301Z,9.30
2023-01-30T08:38:48.206Z,8.53
2023-01-30T08:41:17.400Z,8.57
2023-01-30T08:43:45.885Z,9.97
2023-01-30T08:46:14.555Z,8.90
2023-01-30T08:48:49.884Z,8.37
2023-01-30T08:51:18.575Z,8.10
2023-01-30T08:53:46.316Z,7.87
2023-01-30T08:56:14.723Z,9.03
2023-01-30T08:58:46.372Z,8.73
2023-01-30T09:01:14.510Z,8.17
2023-01-30T09:03:42.561Z,7.53
2023-01-30T09:06:10.349Z,7.93
2023-01-30T09:08:38.195Z,7.53
2023-01-30T09:11:06.909Z,8.20
2023-01-30T09:13:36.188Z,7.27
2023-01-30T09:16:07.905Z,8.00
2023-01-30T09:18:35.866Z,9.37
2023-01-30T09:21:04.923Z,9.63
2023-01-30T09:23:32.620Z,8.50
2023-01-30T09:26:02.253Z,7.60
2023-01-30T09:28:30.733Z,7.30
2023-01-30T09:30:59.546Z,7.23
2023-01-30T09:33:29.207Z,7.23
2023-01-30T09:35:57.853Z,7.23
2023-01-30T09:38:25.700Z,6.77
2023-01-30T09:41:19.212Z,6.27
2023-01-30T09:44:08.434Z,6.00
2023-01-30T09:46:43.732Z,5.27
2023-01-30T09:49:25.841Z,6.60
2023-01-30T09:52:03.392Z,5.47
2023-01-30T09:54:33.798Z,5.73
2023-01-30T09:57:21.605Z,5.17
2023-01-30T09:59:58.648Z,4.97
2023-01-30T10:02:42.310Z,5.43
2023-01-30T10:05:11.549Z,5.00
2023-01-30T10:07:48.976Z,5.20
2023-01-30T10:10:22.290Z,5.40
2023-01-30T10:12:57.436Z,4.73
2023-01-30T10:15:35.996Z,4.67
2023-01-30T10:18:25.017Z,4.37
2023-01-30T10:21:06.570Z,4.60
2023-01-30T10:23:48.547Z,4.50
2023-01-30T10:26:20.269Z,4.20
2023-01-30T10:29:06.765Z,4.80
2023-01-30T10:31:42.511Z,4.57
2023-01-30T10:34:15.749Z,4.77
2023-01-30T10:36:52.913Z,4.10
2023-01-30T10:39:27.223Z,4.03
2023-01-30T10:42:02.258Z,4.40
2023-01-30T10:44:30.347Z,4.43
2023-01-30T10:47:46.219Z,4.30
2023-01-30T10:50:18.173Z,4.07
2023-01-30T10:52:56.104Z,4.50
2023-01-30T10:55:37.626Z,4.00
2023-01-30T10:58:15.105Z,4.37
2023-01-30T11:00:48.115Z,4.27
2023-01-30T11:03:25.259Z,4.23
2023-01-30T11:05:55.286Z,4.17
2023-01-30T11:08:26.907Z,4.33
2023-01-30T11:10:56.637Z,4.30
2023-01-30T11:13:30.354Z,3.93
2023-01-30T11:16:01.057Z,4.00
2023-01-30T11:21:27.109Z,3.57
2023-01-30T11:24:06.896Z,3.47
2023-01-30T11:26:46.713Z,3.63
2023-01-30T11:29:27.707Z,3.97
2023-01-30T11:31:55.756Z,3.77
2023-01-30T11:34:25.506Z,3.23
2023-01-30T11:36:54.284Z,3.60
2023-01-30T11:39:30.197Z,3.17
2023-01-30T11:42:03.845Z,3.37
2023-01-30T11:44:35.276Z,3.17
2023-01-30T11:47:08.843Z,3.43
2023-01-30T11:49:47.057Z,3.00
2023-01-30T11:52:19.508Z,2.90
2023-01-30T11:54:49.612Z,3.10
2023-01-30T11:57:19.960Z,3.10
2023-01-30T11:59:50.791Z,3.37
2023-01-30T12:02:24.593Z,2.93
2023-01-30T12:04:56.289Z,2.60
2023-01-30T12:07:27.475Z,3.27
2023-01-30T12:09:58.400Z,2.83
2023-01-30T12:12:30.530Z,3.03
2023-01-30T12:15:12.385Z,2.67
2023-01-30T12:17:45.649Z,2.97
2023-01-30T12:20:19.308Z,3.50
2023-01-30T12:22:53.148Z,2.83
2023-01-30T12:25:27.702Z,3.25
2023-01-30T12:28:00.903Z,3.45
2023-01-30T12:33:07.855Z,3.17
2023-01-30T12:35:54.239Z,3.50
2023-01-30T12:38:34.357Z,4.07
2023-01-30T12:41:16.799Z,3.90
2023-01-30T12:44:00.170Z,3.73
2023-01-30T12:46:44.318Z,3.42
2023-01-30T12:49:49.113Z,4.03
2023-01-30T12:52:51.259Z,3.88
2023-01-30T12:55:27.993Z,3.88
2023-01-30T12:58:02.086Z,4.15
2023-01-30T13:00:44.552Z,4.40
2023-01-30T13:03:24.613Z,4.03
2023-01-30T13:06:04.632Z,4.15
2023-01-30T13:08:43.611Z,4.97
2023-01-30T13:11:29.150Z,4.43
2023-01-30T13:14:08.490Z,4.40
2023-01-30T13:16:44.389Z,6.07
2023-01-30T13:19:21.099Z,5.60
2023-01-30T13:21:57.811Z,5.20
2023-01-30T13:24:36.375Z,5.40
2023-01-30T13:27:18.437Z,5.37
2023-01-30T13:29:49.822Z,4.93
2023-01-30T13:32:28.359Z,5.10
2023-01-30T13:34:57.825Z,5.77
2023-01-30T13:37:25.748Z,5.60
2023-01-30T13:39:58.516Z,5.33
2023-01-30T13:42:34.547Z,5.40
2023-01-30T13:45:06.354Z,4.83
2023-01-30T13:47:49.220Z,5.37
2023-01-30T13:50:28.372Z,4.68
2023-01-30T13:53:00.557Z,5.32
2023-01-30T13:55:36.496Z,5.72
2023-01-30T13:58:13.847Z,5.17
2023-01-30T14:00:54.631Z,5.05
2023-01-30T14:03:31.975Z,5.07
2023-01-30T14:06:24.299Z,5.22
2023-01-30T14:08:59.126Z,5.22
2023-01-30T14:11:48.253Z,5.93
2023-01-30T14:14:28.394Z,5.82
2023-01-30T14:17:08.764Z,5.70
2023-01-30T14:19:43.678Z,5.80
2023-01-30T14:22:24.676Z,5.30
2023-01-30T14:25:41.802Z,6.45
2023-01-30T14:28:51.739Z,6.00
2023-01-30T14:31:55.886Z,5.22
2023-01-30T14:34:44.267Z,6.07
2023-01-30T14:37:50.142Z,5.75
2023-01-30T14:40:46.616Z,5.90
2023-01-30T14:43:53.328Z,5.77
2023-01-30T14:46:54.889Z,5.93
2023-01-30T14:49:30.953Z,6.03
2023-01-30T14:52:01.189Z,6.00
2023-01-30T14:54:41.889Z,6.65
2023-01-30T14:57:20.488Z,5.93
2023-01-30T15:00:12.219Z,5.55
2023-01-30T15:02:44.728Z,6.05
2023-01-30T15:05:16.715Z,6.20
2023-01-30T15:07:49.661Z,5.53
2023-01-30T15:10:31.261Z,5.75
2023-01-30T15:13:22.506Z,5.47
2023-01-30T15:16:01.636Z,5.10
2023-01-30T15:18:48.936Z,4.93
2023-01-30T15:21:37.143Z,4.45
2023-01-30T15:24:26.303Z,4.10
2023-01-30T15:27:08.581Z,4.63
2023-01-30T15:30:04.065Z,4.77
2023-01-30T15:32:33.823Z,4.97
2023-01-30T15:35:04.409Z,4.43
2023-01-30T15:37:35.314Z,4.60
2023-01-30T15:40:29.718Z,4.33
2023-01-30T15:43:17.999Z,4.75
2023-01-30T15:45:59.803Z,4.20
2023-01-30T15:48:54.634Z,6.63
2023-01-30T15:51:28.088Z,5.05
2023-01-30T15:53:57.544Z,5.00
2023-01-30T15:56:30.944Z,5.10
2023-01-30T15:59:01.637Z,4.93
2023-01-30T16:01:29.741Z,4.90
2023-01-30T16:04:00.377Z,5.13
2023-01-30T16:06:33.651Z,5.07
2023-01-30T16:09:03.776Z,5.47
2023-01-30T16:11:41.365Z,4.85
2023-01-30T16:14:13.793Z,5.80
2023-01-30T16:16:47.062Z,5.55
2023-01-30T16:19:22.652Z,6.38
2023-01-30T16:21:50.637Z,5.70
2023-01-30T16:24:22.150Z,8.00
2023-01-30T16:26:55.388Z,6.70
2023-01-30T16:29:25.579Z,5.63
2023-01-30T16:31:55.692Z,6.22
2023-01-30T16:34:30.059Z,6.53
2023-01-30T16:37:03.619Z,6.40
2023-01-30T16:39:33.876Z,6.93
2023-01-30T16:42:05.657Z,5.93
2023-01-30T16:44:34.106Z,6.73
2023-01-30T16:47:05.327Z,5.72
2023-01-30T16:49:44.294Z,5.40
2023-01-30T16:52:19.953Z,5.90
2023-01-30T16:54:50.319Z,5.97
2023-01-30T16:57:36.576Z,5.78
2023-01-30T17:00:09.965Z,6.17
2023-01-30T17:02:40.758Z,5.90
2023-01-30T17:05:18.154Z,6.30
2023-01-30T17:07:46.637Z,6.40
2023-01-30T17:10:55.091Z,7.10
2023-01-30T17:13:36.554Z,8.10
2023-01-30T17:16:23.900Z,6.60
2023-01-30T17:18:53.389Z,6.20
2023-01-30T17:21:23.020Z,5.97
2023-01-30T17:23:53.953Z,6.70
2023-01-30T17:26:22.231Z,7.27
2023-01-30T17:28:51.794Z,6.07
2023-01-30T17:31:22.006Z,7.07
2023-01-30T17:33:49.832Z,6.97
2023-01-30T17:36:23.998Z,8.03
2023-01-30T17:38:52.552Z,6.93
2023-01-30T17:41:22.100Z,8.50
2023-01-30T17:43:52.493Z,8.57
2023-01-30T17:46:24.350Z,7.80
2023-01-30T17:48:52.371Z,8.13
2023-01-30T17:51:20.421Z,7.82
2023-01-30T17:53:48.104Z,7.95
2023-01-30T17:56:22.875Z,8.83
2023-01-30T17:58:52.150Z,7.90
2023-01-30T18:01:20.108Z,7.80
2023-01-30T18:03:47.888Z,7.97
2023-01-30T18:06:17.465Z,6.18
2023-01-30T18:08:45.582Z,6.53
2023-01-30T18:11:14.826Z,6.72
2023-01-30T18:13:47.600Z,6.93
2023-01-30T18:16:23.013Z,6.85
2023-01-30T18:18:51.575Z,5.80
2023-01-30T18:21:22.019Z,5.65
2023-01-30T18:23:49.945Z,6.53
2023-01-30T18:26:18.320Z,7.23
2023-01-30T18:28:46.348Z,7.80
2023-01-30T18:31:14.485Z,7.53
2023-01-30T18:33:45.516Z,8.27
2023-01-30T18:36:15.179Z,8.18
2023-01-30T18:38:43.760Z,9.32
2023-01-30T18:41:14.188Z,8.98
2023-01-30T18:43:42.536Z,7.90
2023-01-30T18:46:12.372Z,8.30
2023-01-30T18:48:40.048Z,8.00
2023-01-30T18:51:11.734Z,8.23
2023-01-30T18:53:41.035Z,9.38
2023-01-30T18:56:09.221Z,9.40
2023-01-30T18:58:36.898Z,9.80
2023-01-30T19:01:10.431Z,9.43
2023-01-30T19:03:38.942Z,8.77
2023-01-30T19:06:11.648Z,9.13
2023-01-30T19:08:39.763Z,9.70
2023-01-30T19:11:22.366Z,10.88
2023-01-30T19:13:50.294Z,9.13
2023-01-30T19:16:19.013Z,9.27
2023-01-30T19:18:47.108Z,9.45
2023-01-30T19:21:16.181Z,9.32
2023-01-30T19:23:44.055Z,9.90
2023-01-30T19:26:12.006Z,9.05
2023-01-30T19:28:41.751Z,8.25
2023-01-30T19:31:10.708Z,8.27
2023-01-30T19:33:38.785Z,8.25
2023-01-30T19:36:10.808Z,7.95
2023-01-30T19:38:40.412Z,7.88
2023-01-30T19:41:12.582Z,7.80
2023-01-30T19:43:41.048Z,8.18
2023-01-30T19:46:11.279Z,7.90
2023-01-30T19:48:39.804Z,8.77
2023-01-30T19:51:13.472Z,10.52
2023-01-30T19:53:44.262Z,11.10
2023-01-30T19:56:14.933Z,10.05
2023-01-30T19:58:44.154Z,10.10
2023-01-30T20:01:15.655Z,9.43
2023-01-30T20:03:44.571Z,9.85
2023-01-30T20:06:14.246Z,10.65
2023-01-30T20:08:45.039Z,11.10
2023-01-30T20:11:16.147Z,8.88
2023-01-30T20:13:45.957Z,9.07
2023-01-30T20:16:18.504Z,9.73
2023-01-30T20:18:48.151Z,11.35
2023-01-30T20:21:17.500Z,8.77
2023-01-30T20:23:47.303Z,8.55
2023-01-30T20:26:16.801Z,7.82
2023-01-30T20:28:45.527Z,8.25
2023-01-30T20:31:15.219Z,7.78
2023-01-30T20:33:44.054Z,7.55
2023-01-30T20:36:14.113Z,10.32
2023-01-30T20:38:45.296Z,7.40
2023-01-30T20:41:16.382Z,6.35
2023-01-30T20:43:46.485Z,7.55
2023-01-30T20:46:16.246Z,7.55
2023-01-30T20:48:45.403Z,8.32
2023-01-30T20:51:15.141Z,7.68
2023-01-30T20:53:48.941Z,7.30
2023-01-30T20:56:18.262Z,7.38
2023-01-30T20:58:46.714Z,8.35
2023-01-30T21:01:18.259Z,8.27
2023-01-30T21:03:50.234Z,8.23
2023-01-30T21:06:42.976Z,8.93
2023-01-30T21:09:07.724Z,9.75
2023-01-30T21:11:37.023Z,10.15
2023-01-30T21:14:05.318Z,10.60
2023-01-30T21:16:35.171Z,9.35
2023-01-30T21:19:06.423Z,8.63
2023-01-30T21:21:37.096Z,10.13
2023-01-30T21:24:07.581Z,10.93
2023-01-30T21:26:39.640Z,11.65
2023-01-30T21:29:08.544Z,10.10
2023-01-30T21:31:37.924Z,10.40
2023-01-30T21:34:07.724Z,10.48
2023-01-30T21:36:35.871Z,8.55
2023-01-30T21:39:21.275Z,9.05
2023-01-30T21:42:08.490Z,9.30
2023-01-30T21:44:38.288Z,9.73
2023-01-30T21:47:07.248Z,9.93
2023-01-30T21:49:36.768Z,10.13
2023-01-30T21:52:05.287Z,8.40
2023-01-30T21:54:33.380Z,8.70
2023-01-30T21:57:02.411Z,9.00
2023-01-30T21:59:31.589Z,8.30
2023-01-30T22:01:59.324Z,8.45
2023-01-30T22:04:27.028Z,9.75
2023-01-30T22:06:54.902Z,9.73
2023-01-30T22:09:22.645Z,9.35
2023-01-30T22:11:51.197Z,10.43
2023-01-30T22:14:20.264Z,9.60
2023-01-30T22:16:48.901Z,9.80
2023-01-30T22:19:17.180Z,9.98
2023-01-30T22:21:44.840Z,9.88
2023-01-30T22:24:13.322Z,11.20
2023-01-30T22:26:41.128Z,10.38
2023-01-30T22:29:08.932Z,10.73
2023-01-30T22:31:40.551Z,10.93
2023-01-30T22:34:09.051Z,10.30
2023-01-30T22:36:37.521Z,10.45
2023-01-30T22:39:06.659Z,10.85
2023-01-30T22:41:36.346Z,11.93
2023-01-30T22:44:06.610Z,11.13
2023-01-30T22:46:37.377Z,10.45
2023-01-30T22:49:08.259Z,10.13
2023-01-30T22:51:38.481Z,10.10
2023-01-30T22:54:08.012Z,10.40
2023-01-30T22:56:38.355Z,10.47
2023-01-30T22:59:06.975Z,10.95
2023-01-30T23:01:37.089Z,10.38
2023-01-30T23:04:08.109Z,12.55
2023-01-30T23:06:36.901Z,11.52
2023-01-30T23:09:07.322Z,10.43
2023-01-30T23:11:38.243Z,11.05
2023-01-30T23:14:09.021Z,10.88
2023-01-30T23:16:39.009Z,11.48
2023-01-30T23:19:08.995Z,12.83
2023-01-30T23:21:38.132Z,12.03
2023-01-30T23:24:08.376Z,10.87
2023-01-30T23:26:39.216Z,12.03
2023-01-30T23:29:13.141Z,11.73
2023-01-30T23:31:42.080Z,11.47
2023-01-30T23:34:13.667Z,11.47
2023-01-30T23:36:41.406Z,11.47
2023-01-30T23:39:10.040Z,10.93
2023-01-30T23:41:37.797Z,11.33
2023-01-30T23:44:05.676Z,9.90
2023-01-30T23:46:35.320Z,10.23
2023-01-30T23:49:05.958Z,9.87
2023-01-30T23:51:37.543Z,10.00
2023-01-30T23:54:06.052Z,10.07
2023-01-30T23:56:36.372Z,9.60
2023-01-30T23:59:05.631Z,9.63
